Time;durP1;ratioP1;P1;durP2;ratioP2;P2;SDS_P1;SDS_P2;PMS_P1;PMS_P2;Temp;Humidity;BMP_temperature;BMP_pressure;BME280_temperature;BME280_humidity;BME280_pressure;Samples;Min_cycle;Max_cycle;Signal;HPM_P1;HPM_P2
2023/08/21 00:02:22;;;;;;;9.43;3.40;;;17.30;99.90;;;;;;5074026;28;20020;-72
2023/08/21 00:04:48;;;;;;;8.15;3.38;;;17.30;99.90;;;;;;5074113;28;20120;-71
2023/08/21 00:07:14;;;;;;;6.65;3.33;;;17.30;99.90;;;;;;5074022;28;20037;-71
2023/08/21 00:09:39;;;;;;;7.32;2.90;;;17.30;99.90;;;;;;5073356;28;20509;-72
2023/08/21 00:12:06;;;;;;;7.55;3.40;;;17.30;99.90;;;;;;5073398;28;20115;-72
2023/08/21 00:14:32;;;;;;;6.88;3.30;;;17.30;99.90;;;;;;5073937;28;20059;-71
2023/08/21 00:16:57;;;;;;;10.02;3.38;;;17.30;99.90;;;;;;5073598;28;20040;-71
2023/08/21 00:19:23;;;;;;;7.88;2.92;;;17.30;99.90;;;;;;5073637;28;20060;-71
2023/08/21 00:21:48;;;;;;;5.25;2.70;;;17.30;99.90;;;;;;5073540;28;20378;-72
2023/08/21 00:24:14;;;;;;;5.97;3.05;;;17.30;99.90;;;;;;5073288;28;20032;-74
2023/08/21 00:26:40;;;;;;;4.80;2.85;;;17.30;99.90;;;;;;5073204;28;20166;-71
2023/08/21 00:29:05;;;;;;;7.15;3.28;;;17.20;99.90;;;;;;5073178;28;20025;-71
2023/08/21 00:31:31;;;;;;;7.07;3.70;;;17.20;99.90;;;;;;5073458;28;20032;-72
2023/08/21 00:33:56;;;;;;;9.38;3.05;;;17.10;99.90;;;;;;5073780;28;20359;-72
2023/08/21 00:36:22;;;;;;;6.63;3.47;;;17.10;99.90;;;;;;5073612;28;20044;-71
2023/08/21 00:38:48;;;;;;;8.63;3.30;;;17.10;99.90;;;;;;5073151;28;20017;-72
2023/08/21 00:41:13;;;;;;;10.27;3.55;;;17.00;99.90;;;;;;5073705;28;20027;-71
2023/08/21 00:43:39;;;;;;;10.45;4.07;;;17.00;99.90;;;;;;5072678;28;20094;-72
2023/08/21 00:46:05;;;;;;;6.00;4.00;;;17.00;99.90;;;;;;5073381;28;20032;-71
2023/08/21 00:48:31;;;;;;;12.27;3.70;;;17.00;99.90;;;;;;5072485;28;20031;-71
2023/08/21 00:50:57;;;;;;;8.45;3.75;;;17.10;99.90;;;;;;5072644;28;20048;-72
2023/08/21 00:53:24;;;;;;;8.15;3.60;;;17.10;99.90;;;;;;5073705;28;20033;-72
2023/08/21 00:55:50;;;;;;;9.00;3.70;;;17.10;99.90;;;;;;5072737;28;20031;-72
2023/08/21 00:58:17;;;;;;;10.07;3.80;;;17.10;99.90;;;;;;5075033;28;20111;-72
2023/08/21 01:00:47;;;;;;;11.85;5.72;;;17.10;99.90;;;;;;5076151;28;20025;-72
2023/08/21 01:03:13;;;;;;;14.70;5.43;;;17.10;99.90;;;;;;5076865;28;20028;-71
2023/08/21 01:05:38;;;;;;;11.77;5.20;;;17.30;99.90;;;;;;5076771;28;20029;-71
2023/08/21 01:08:14;;;;;;;11.55;5.07;;;17.50;99.90;;;;;;5076959;28;20032;-71
2023/08/21 01:11:05;;;;;;;10.00;4.55;;;17.60;99.90;;;;;;5076679;28;20029;-71
2023/08/21 01:14:11;;;;;;;11.00;4.57;;;17.70;99.90;;;;;;5075788;28;20098;-71
2023/08/21 01:16:37;;;;;;;8.27;4.25;;;17.70;99.90;;;;;;5076026;28;20062;-71
2023/08/21 01:19:09;;;;;;;7.68;4.13;;;17.60;99.90;;;;;;5076500;28;20028;-71
2023/08/21 01:21:34;;;;;;;6.78;3.60;;;17.60;99.90;;;;;;5076521;28;20036;-72
2023/08/21 01:24:00;;;;;;;6.85;3.70;;;17.50;99.90;;;;;;5076421;28;20074;-71
2023/08/21 01:26:25;;;;;;;6.30;3.75;;;17.50;99.90;;;;;;5076611;28;20378;-71
2023/08/21 01:28:51;;;;;;;12.35;4.70;;;17.40;99.90;;;;;;5075968;28;20038;-71
2023/08/21 01:31:24;;;;;;;11.45;3.75;;;17.30;99.90;;;;;;5076375;28;20098;-72
2023/08/21 01:33:53;;;;;;;14.88;5.40;;;17.30;99.90;;;;;;5075983;28;20025;-71
2023/08/21 01:36:20;;;;;;;12.85;4.25;;;;;;;;;;5076499;28;20123;-72
2023/08/21 01:38:47;;;;;;;9.70;4.25;;;17.30;99.90;;;;;;5076081;28;20489;-72
2023/08/21 01:41:12;;;;;;;7.57;4.70;;;17.10;99.90;;;;;;5076304;28;20413;-71
2023/08/21 01:43:38;;;;;;;11.27;4.25;;;17.10;99.90;;;;;;5076357;28;20033;-71
2023/08/21 01:46:04;;;;;;;8.63;4.72;;;17.10;99.90;;;;;;5076037;28;20029;-72
2023/08/21 01:48:29;;;;;;;8.93;4.35;;;16.90;99.90;;;;;;5075618;28;20078;-71
2023/08/21 01:50:55;;;;;;;8.65;3.92;;;17.00;99.90;;;;;;5075070;28;20049;-71
2023/08/21 01:53:20;;;;;;;8.95;4.00;;;16.90;99.90;;;;;;5075465;28;20474;-71
2023/08/21 01:55:46;;;;;;;9.75;4.60;;;16.90;99.90;;;;;;5075907;28;20028;-72
2023/08/21 01:58:12;;;;;;;13.23;5.05;;;16.90;99.90;;;;;;5075357;28;20020;-73
2023/08/21 02:00:37;;;;;;;8.25;5.35;;;16.90;99.90;;;;;;5075357;28;20025;-72
2023/08/21 02:03:03;;;;;;;12.82;5.45;;;17.10;99.90;;;;;;5075766;28;20493;-71
2023/08/21 02:05:29;;;;;;;9.73;4.88;;;17.40;99.90;;;;;;5075406;28;20029;-72
2023/08/21 02:07:54;;;;;;;12.45;4.93;;;17.40;99.90;;;;;;5075437;28;20017;-72
2023/08/21 02:10:20;;;;;;;8.48;4.43;;;16.80;99.90;;;;;;5074720;28;20478;-72
2023/08/21 02:12:46;;;;;;;10.40;4.72;;;17.40;99.90;;;;;;5075758;28;20078;-71
2023/08/21 02:15:11;;;;;;;9.05;4.68;;;17.50;99.90;;;;;;5075497;28;20082;-72
2023/08/21 02:17:37;;;;;;;9.48;4.60;;;17.30;99.90;;;;;;5075479;28;20028;-71
2023/08/21 02:20:03;;;;;;;10.52;4.57;;;17.30;99.90;;;;;;5075406;28;20113;-72
2023/08/21 02:22:28;;;;;;;11.50;5.25;;;17.30;99.90;;;;;;5075554;28;20127;-77
2023/08/21 02:24:54;;;;;;;7.88;4.80;;;17.20;99.90;;;;;;5075555;28;20028;-72
2023/08/21 02:27:20;;;;;;;11.00;5.05;;;17.20;99.90;;;;;;5074552;28;20067;-71
2023/08/21 02:29:45;;;;;;;9.48;4.60;;;17.10;99.90;;;;;;5075148;28;20068;-71
2023/08/21 02:32:11;;;;;;;10.13;4.45;;;17.10;99.90;;;;;;5075394;28;20039;-72
2023/08/21 02:34:36;;;;;;;8.05;4.53;;;17.00;99.90;;;;;;5074325;28;20020;-72
2023/08/21 02:37:03;;;;;;;11.07;5.38;;;16.90;99.90;;;;;;5074588;28;20033;-72
2023/08/21 02:39:28;;;;;;;11.88;5.32;;;17.00;99.90;;;;;;5074254;28;20024;-71
2023/08/21 02:41:54;;;;;;;7.50;4.45;;;17.00;99.90;;;;;;5075139;28;20040;-72
2023/08/21 02:44:20;;;;;;;15.18;5.00;;;17.00;99.90;;;;;;5074933;28;20051;-72
2023/08/21 02:46:45;;;;;;;11.40;5.43;;;16.90;99.90;;;;;;5074569;28;20028;-71
2023/08/21 02:49:11;;;;;;;10.05;4.50;;;17.00;99.90;;;;;;5074925;28;20352;-73
2023/08/21 02:51:36;;;;;;;10.68;4.68;;;16.80;99.90;;;;;;5074408;28;20033;-72
2023/08/21 02:54:02;;;;;;;11.70;4.22;;;16.90;99.90;;;;;;5074272;28;20082;-72
2023/08/21 02:56:28;;;;;;;11.45;4.88;;;16.90;99.90;;;;;;5074941;28;20032;-72
2023/08/21 02:58:53;;;;;;;12.07;4.97;;;16.90;99.90;;;;;;5073592;28;20021;-72
2023/08/21 03:01:19;;;;;;;11.35;4.43;;;17.00;99.90;;;;;;5074506;28;20078;-72
2023/08/21 03:03:44;;;;;;;8.95;3.95;;;17.10;99.90;;;;;;5074772;28;20020;-72
2023/08/21 03:06:10;;;;;;;8.93;3.45;;;17.10;99.90;;;;;;5074670;28;20028;-72
2023/08/21 03:08:35;;;;;;;9.65;3.70;;;17.10;99.90;;;;;;5074154;28;20032;-72
2023/08/21 03:11:01;;;;;;;11.13;3.78;;;17.10;99.90;;;;;;5073837;28;20025;-72
2023/08/21 03:13:27;;;;;;;7.55;3.28;;;17.20;99.90;;;;;;5074395;28;20039;-72
2023/08/21 03:15:52;;;;;;;9.73;3.42;;;17.20;99.90;;;;;;5074321;28;20032;-72
2023/08/21 03:18:18;;;;;;;7.47;3.38;;;17.20;99.90;;;;;;5073675;28;20037;-72
2023/08/21 03:20:45;;;;;;;4.10;3.08;;;17.20;99.90;;;;;;5073849;28;20025;-72
2023/08/21 03:23:11;;;;;;;9.02;3.53;;;17.20;99.90;;;;;;5074475;28;20031;-72
2023/08/21 03:25:37;;;;;;;7.70;3.33;;;17.10;99.90;;;;;;5073797;28;20382;-72
2023/08/21 03:28:02;;;;;;;6.43;3.20;;;17.10;99.90;;;;;;5073959;28;20115;-72
2023/08/21 03:30:28;;;;;;;9.18;3.00;;;17.10;99.90;;;;;;5073844;28;20427;-72
2023/08/21 03:32:54;;;;;;;4.80;2.85;;;17.00;99.90;;;;;;5073903;28;20055;-72
2023/08/21 03:35:19;;;;;;;6.72;2.55;;;17.00;99.90;;;;;;5074145;28;20024;-72
2023/08/21 03:37:45;;;;;;;10.88;3.45;;;16.90;99.90;;;;;;5074072;28;20035;-72
2023/08/21 03:40:11;;;;;;;6.57;2.53;;;16.90;99.90;;;;;;5073677;28;20033;-72
2023/08/21 03:42:36;;;;;;;6.03;3.05;;;16.80;99.90;;;;;;5073745;28;20036;-72
2023/08/21 03:45:04;;;;;;;7.97;3.28;;;16.70;99.90;;;;;;5073787;28;20070;-72
2023/08/21 03:47:30;;;;;;;7.13;3.25;;;16.70;99.90;;;;;;5072908;28;20036;-71
2023/08/21 03:49:56;;;;;;;8.43;2.88;;;16.60;99.90;;;;;;5073503;28;20505;-71
2023/08/21 03:52:22;;;;;;;9.40;3.72;;;16.60;99.90;;;;;;5074132;28;20066;-72
2023/08/21 03:54:48;;;;;;;12.20;2.97;;;16.60;99.90;;;;;;5074081;28;20454;-71
2023/08/21 03:57:13;;;;;;;6.88;3.15;;;16.60;99.90;;;;;;5073500;28;20028;-72
2023/08/21 03:59:39;;;;;;;13.10;3.25;;;16.60;99.90;;;;;;5073369;28;20027;-72
2023/08/21 04:02:04;;;;;;;5.95;3.38;;;16.60;99.90;;;;;;5074100;28;20111;-71
2023/08/21 04:04:30;;;;;;;5.65;3.15;;;16.50;99.90;;;;;;5073361;28;20490;-72
2023/08/21 04:06:56;;;;;;;8.85;3.42;;;16.50;99.90;;;;;;5073764;28;20056;-72
2023/08/21 04:09:21;;;;;;;11.77;3.20;;;16.50;99.90;;;;;;5073888;28;20434;-71
2023/08/21 04:11:47;;;;;;;5.55;3.05;;;16.50;99.90;;;;;;5073689;28;20039;-72
2023/08/21 04:14:12;;;;;;;10.02;3.22;;;16.50;99.90;;;;;;5073017;28;20023;-71
2023/08/21 04:16:38;;;;;;;8.35;3.05;;;16.40;99.90;;;;;;5073701;28;20058;-71
2023/08/21 04:19:05;;;;;;;7.30;3.03;;;16.40;99.90;;;;;;5073853;28;20027;-72
2023/08/21 04:21:31;;;;;;;9.85;3.85;;;16.40;99.90;;;;;;5073814;28;20024;-72
2023/08/21 04:23:57;;;;;;;11.10;3.90;;;16.30;99.90;;;;;;5073882;28;20032;-71
2023/08/21 04:26:22;;;;;;;10.77;3.90;;;16.30;99.90;;;;;;5073772;28;20379;-72
2023/08/21 04:28:48;;;;;;;8.07;4.30;;;16.40;99.90;;;;;;5073511;28;20032;-72
2023/08/21 04:31:13;;;;;;;7.75;4.03;;;16.40;99.90;;;;;;5073219;28;20033;-72
2023/08/21 04:33:39;;;;;;;12.70;4.05;;;16.40;99.90;;;;;;5075433;28;20492;-72
2023/08/21 04:36:05;;;;;;;8.05;3.80;;;16.40;99.90;;;;;;5077595;28;20036;-72
2023/08/21 04:38:31;;;;;;;13.90;4.45;;;16.50;99.90;;;;;;5077340;28;20032;-72
2023/08/21 04:41:05;;;;;;;8.27;3.67;;;16.50;99.90;;;;;;5077512;28;20050;-71
2023/08/21 04:43:30;;;;;;;9.75;4.32;;;16.60;99.90;;;;;;5077068;28;20028;-71
2023/08/21 04:45:56;;;;;;;11.05;4.35;;;16.70;99.90;;;;;;5077154;28;20039;-72
2023/08/21 04:48:21;;;;;;;10.35;4.32;;;16.70;99.90;;;;;;5076930;28;20467;-73
2023/08/21 04:50:47;;;;;;;9.73;4.28;;;16.80;99.90;;;;;;5075980;28;20048;-73
2023/08/21 04:53:13;;;;;;;7.35;4.13;;;16.80;99.90;;;;;;5076816;28;20028;-72
2023/08/21 04:55:40;;;;;;;9.48;4.30;;;16.90;99.90;;;;;;5077190;28;20036;-72
2023/08/21 04:58:07;;;;;;;6.20;3.50;;;16.90;99.90;;;;;;5076766;28;20016;-73
2023/08/21 05:00:33;;;;;;;6.88;3.80;;;16.90;99.90;;;;;;5077103;28;20033;-73
2023/08/21 05:02:58;;;;;;;8.77;4.18;;;16.90;99.90;;;;;;5077055;28;20033;-73
2023/08/21 05:05:24;;;;;;;14.88;4.78;;;16.90;99.90;;;;;;5077071;28;20039;-73
2023/08/21 05:07:50;;;;;;;7.45;3.78;;;16.90;99.90;;;;;;5076814;28;20454;-72
2023/08/21 05:10:15;;;;;;;5.93;3.47;;;16.90;99.90;;;;;;5076989;28;20109;-72
2023/08/21 05:12:41;;;;;;;6.63;3.95;;;17.00;99.90;;;;;;5076308;28;20025;-72
2023/08/21 05:15:07;;;;;;;10.63;4.68;;;17.00;99.90;;;;;;5076895;28;20522;-73
2023/08/21 05:17:33;;;;;;;12.77;5.82;;;17.10;99.90;;;;;;5076565;28;20028;-72
2023/08/21 05:19:58;;;;;;;12.55;4.85;;;17.10;99.90;;;;;;5076093;28;20028;-73
2023/08/21 05:22:24;;;;;;;9.90;5.00;;;17.30;99.90;;;;;;5076255;28;20028;-73
2023/08/21 05:24:49;;;;;;;9.18;4.90;;;17.40;99.90;;;;;;5076025;28;20369;-73
2023/08/21 05:27:15;;;;;;;10.98;5.30;;;17.50;99.90;;;;;;5076600;28;20367;-73
2023/08/21 05:29:41;;;;;;;10.27;5.45;;;17.60;99.90;;;;;;5076192;28;20020;-73
2023/08/21 05:32:06;;;;;;;9.32;5.85;;;17.80;99.90;;;;;;5076290;28;20455;-73
2023/08/21 05:34:32;;;;;;;12.38;5.07;;;18.00;99.90;;;;;;5076009;28;20036;-73
2023/08/21 05:36:58;;;;;;;13.55;4.43;;;18.20;99.90;;;;;;5076207;28;20486;-73
2023/08/21 05:39:23;;;;;;;12.05;4.50;;;18.50;99.90;;;;;;5075747;28;20021;-73
2023/08/21 05:41:49;;;;;;;8.80;3.78;;;18.70;99.90;;;;;;5076095;28;20024;-73
2023/08/21 05:44:15;;;;;;;12.18;4.70;;;19.00;99.90;;;;;;5075694;28;20477;-73
2023/08/21 05:46:40;;;;;;;7.05;3.70;;;19.20;99.90;;;;;;5075746;28;20028;-73
2023/08/21 05:49:06;;;;;;;7.97;3.92;;;19.50;98.80;;;;;;5075827;28;20029;-73
2023/08/21 05:51:32;;;;;;;8.55;4.00;;;20.30;53.00;;;;;;5074980;28;20454;-73
2023/08/21 05:53:57;;;;;;;13.65;4.05;;;20.80;1.00;;;;;;5076104;28;20020;-73
2023/08/21 05:56:23;;;;;;;8.95;4.30;;;20.60;1.00;;;;;;5076040;28;20454;-73
2023/08/21 05:58:49;;;;;;;9.52;3.88;;;20.40;8.40;;;;;;5071252;28;20474;-73
2023/08/21 06:01:15;;;;;;;5.82;2.70;;;20.20;22.70;;;;;;5058915;28;20047;-74
2023/08/21 06:03:40;;;;;;;5.75;2.78;;;21.10;21.10;;;;;;5069149;28;20032;-71
2023/08/21 06:06:06;;;;;;;5.65;2.80;;;22.90;1.00;;;;;;5075059;28;20382;-72
2023/08/21 06:08:32;;;;;;;7.68;2.95;;;23.90;99.90;;;;;;5073866;28;20085;-72
2023/08/21 06:10:57;;;;;;;6.18;2.85;;;24.40;99.90;;;;;;5067654;28;20028;-71
2023/08/21 06:13:23;;;;;;;7.00;2.63;;;23.90;99.90;;;;;;5061277;28;20557;-71
2023/08/21 06:15:48;;;;;;;8.43;2.90;;;24.10;99.90;;;;;;5066120;28;20052;-71
2023/08/21 06:18:15;;;;;;;7.43;2.92;;;24.70;99.90;;;;;;5064253;28;20401;-71
2023/08/21 06:20:43;;;;;;;10.13;2.70;;;24.50;1.00;;;;;;5073893;28;20482;-71
2023/08/21 06:23:10;;;;;;;8.32;2.80;;;23.80;7.80;;;;;;5073850;28;20066;-72
2023/08/21 06:25:36;;;;;;;11.70;2.88;;;23.20;99.90;;;;;;5068451;28;20028;-71
2023/08/21 06:28:02;;;;;;;6.93;3.03;;;22.60;1.00;;;;;;5073650;28;20089;-72
2023/08/21 06:30:27;;;;;;;5.95;2.67;;;22.30;1.00;;;;;;5065703;28;20028;-71
2023/08/21 06:32:54;;;;;;;8.88;3.08;;;22.20;1.00;;;;;;5064036;28;20182;-71
2023/08/21 06:35:19;;;;;;;5.32;2.60;;;22.00;1.00;;;;;;5067132;28;20060;-72
2023/08/21 06:37:45;;;;;;;6.43;3.13;;;21.80;1.00;;;;;;5064959;28;20101;-70
2023/08/21 06:40:11;;;;;;;11.60;3.30;;;21.70;1.00;;;;;;5064076;28;20024;-70
2023/08/21 06:42:37;;;;;;;8.38;3.05;;;21.90;1.00;;;;;;5069943;28;20039;-71
2023/08/21 06:45:05;;;;;;;9.48;2.90;;;23.40;1.00;;;;;;5068786;28;20029;-70
2023/08/21 06:47:30;;;;;;;10.20;3.53;;;24.80;56.90;;;;;;5070249;28;20039;-72
2023/08/21 06:49:56;;;;;;;9.88;3.03;;;24.90;1.00;;;;;;5070011;28;20119;-70
2023/08/21 06:52:23;;;;;;;8.52;3.28;;;24.90;53.10;;;;;;5066425;28;20028;-70
2023/08/21 06:54:49;;;;;;;6.95;3.42;;;24.70;99.90;;;;;;5070486;28;20035;-71
2023/08/21 06:57:14;;;;;;;7.03;3.20;;;24.20;1.00;;;;;;5061717;28;20104;-70
2023/08/21 06:59:40;;;;;;;8.43;3.00;;;23.80;1.00;;;;;;5071769;28;20030;-71
2023/08/21 07:02:06;;;;;;;6.25;2.90;;;24.20;26.60;;;;;;5061602;28;20043;-71
2023/08/21 07:04:33;;;;;;;6.55;2.80;;;25.40;99.90;;;;;;5070437;28;20024;-70
2023/08/21 07:06:59;;;;;;;11.60;3.00;;;26.90;1.00;;;;;;5064591;28;20090;-71
2023/08/21 07:09:24;;;;;;;8.82;2.72;;;27.40;99.90;;;;;;5073373;28;20032;-71
2023/08/21 07:11:50;;;;;;;7.50;2.95;;;28.40;99.90;;;;;;5060730;28;20033;-72
2023/08/21 07:14:16;;;;;;;10.40;2.63;;;28.90;1.00;;;;;;5067213;28;20429;-72
2023/08/21 07:16:42;;;;;;;8.93;3.03;;;29.60;14.10;;;;;;5070377;28;20048;-72
2023/08/21 07:19:08;;;;;;;9.45;3.22;;;29.70;1.00;;;;;;5066118;28;20024;-71
2023/08/21 07:21:36;;;;;;;11.88;3.65;;;29.40;1.00;;;;;;5061850;28;20036;-71
2023/08/21 07:24:03;;;;;;;9.20;3.00;;;29.60;1.00;;;;;;5070926;28;20453;-71
2023/08/21 07:26:29;;;;;;;8.80;3.08;;;30.00;1.00;;;;;;5069151;28;20111;-74
2023/08/21 07:28:54;;;;;;;5.15;2.85;;;29.40;1.00;;;;;;5065077;28;20032;-76
2023/08/21 07:31:20;;;;;;;6.93;2.70;;;30.80;99.90;;;;;;5072028;28;20028;-76
2023/08/21 07:33:46;;;;;;;6.88;2.15;;;30.10;99.90;;;;;;5072070;28;20032;-74
2023/08/21 07:36:16;;;;;;;5.30;2.40;;;30.90;99.90;;;;;;5062936;28;20432;-74
2023/08/21 07:38:43;;;;;;;7.72;2.47;;;31.20;99.90;;;;;;5053679;28;20036;-74
2023/08/21 07:41:10;;;;;;;8.98;2.70;;;31.00;99.90;;;;;;5058943;28;20406;-74
2023/08/21 07:43:39;;;;;;;6.20;2.10;;;30.50;99.90;;;;;;5053151;28;20047;-76
2023/08/21 07:46:06;;;;;;;8.93;2.70;;;31.10;99.90;;;;;;5069096;28;20115;-74
2023/08/21 07:48:32;;;;;;;7.22;2.40;;;31.20;99.90;;;;;;5064736;28;20032;-73
2023/08/21 07:50:58;;;;;;;7.18;2.45;;;31.50;99.90;;;;;;5063648;28;20048;-73
2023/08/21 07:53:25;;;;;;;5.65;2.30;;;31.40;99.90;;;;;;5060415;28;20033;-74
2023/08/21 07:55:50;;;;;;;8.45;2.60;;;31.60;99.90;;;;;;5071651;28;20032;-74
2023/08/21 07:58:16;;;;;;;5.45;2.28;;;31.10;99.90;;;;;;5072177;28;20078;-74
2023/08/21 08:00:43;;;;;;;7.90;2.25;;;31.20;99.90;;;;;;5069239;28;20032;-74
2023/08/21 08:03:09;;;;;;;9.18;2.75;;;31.20;99.90;;;;;;5070883;28;20039;-74
2023/08/21 08:05:35;;;;;;;11.18;2.63;;;30.80;99.90;;;;;;5072882;28;20033;-74
2023/08/21 08:08:00;;;;;;;6.22;2.08;;;31.10;99.90;;;;;;5075209;28;20033;-71
2023/08/21 08:10:26;;;;;;;7.20;2.72;;;31.70;99.90;;;;;;5072766;28;20036;-74
2023/08/21 08:12:53;;;;;;;8.77;2.75;;;31.80;99.90;;;;;;5061708;28;20036;-73
2023/08/21 08:15:19;;;;;;;10.38;2.80;;;31.80;99.90;;;;;;5056879;28;20498;-73
2023/08/21 08:17:45;;;;;;;6.35;2.55;;;31.30;99.90;;;;;;5065024;28;20032;-72
2023/08/21 08:20:12;;;;;;;6.75;2.50;;;29.80;99.90;;;;;;5076219;28;20067;-72
2023/08/21 08:22:38;;;;;;;6.47;2.15;;;29.10;99.90;;;;;;5071195;28;20028;-72
2023/08/21 08:25:05;;;;;;;6.20;2.35;;;29.60;99.90;;;;;;5076267;28;20031;-72
2023/08/21 08:27:32;;;;;;;9.95;1.75;;;30.20;99.90;;;;;;5074563;28;20504;-73
2023/08/21 08:29:58;;;;;;;7.40;1.80;;;30.60;99.90;;;;;;5074766;28;20032;-72
2023/08/21 08:32:24;;;;;;;5.60;1.55;;;32.00;99.90;;;;;;5077470;28;20111;-74
2023/08/21 08:34:50;;;;;;;6.22;1.70;;;32.10;99.90;;;;;;5073339;28;20482;-74
2023/08/21 08:37:16;;;;;;;8.50;1.95;;;31.10;99.90;;;;;;5075356;28;20100;-73
2023/08/21 08:39:41;;;;;;;7.57;1.75;;;31.40;99.90;;;;;;5076906;28;20032;-73
2023/08/21 08:42:08;;;;;;;6.20;1.58;;;30.90;99.90;;;;;;5069220;28;20021;-72
2023/08/21 08:44:36;;;;;;;5.00;1.83;;;31.10;99.90;;;;;;5062937;28;20028;-72
2023/08/21 08:47:03;;;;;;;6.78;1.80;;;31.40;99.90;;;;;;5073584;28;20172;-73
2023/08/21 08:49:30;;;;;;;6.45;1.95;;;32.50;99.90;;;;;;5066180;28;20041;-72
2023/08/21 08:51:57;;;;;;;5.85;1.63;;;32.80;99.90;;;;;;5071426;28;20564;-73
2023/08/21 08:54:25;;;;;;;6.38;1.95;;;31.90;99.90;;;;;;5072694;28;20405;-72
2023/08/21 08:56:51;;;;;;;5.45;1.58;;;33.20;99.90;;;;;;5072810;28;20385;-72
2023/08/21 08:59:17;;;;;;;4.72;1.50;;;33.60;99.90;;;;;;5076115;28;20016;-72
2023/08/21 09:01:42;;;;;;;6.28;1.60;;;32.90;99.90;;;;;;5074997;28;20504;-73
2023/08/21 09:04:09;;;;;;;6.80;1.52;;;32.90;99.90;;;;;;5076978;28;20064;-72
2023/08/21 09:06:36;;;;;;;4.78;1.50;;;32.40;99.90;;;;;;5075005;28;20474;-72
2023/08/21 09:09:02;;;;;;;4.88;1.73;;;32.60;99.90;;;;;;5075314;28;20115;-72
2023/08/21 09:11:28;;;;;;;7.10;2.22;;;31.80;99.90;;;;;;5068418;28;20043;-73
2023/08/21 09:13:55;;;;;;;7.70;1.52;;;32.40;99.90;;;;;;5066197;28;20048;-73
2023/08/21 09:16:22;;;;;;;4.15;1.30;;;32.50;99.90;;;;;;5067832;28;20109;-74
2023/08/21 09:18:50;;;;;;;6.25;1.70;;;32.40;99.90;;;;;;5067990;28;20119;-74
2023/08/21 09:21:18;;;;;;;5.70;1.33;;;32.30;99.90;;;;;;5074643;28;20037;-75
2023/08/21 09:23:44;;;;;;;6.32;2.42;;;32.00;99.90;;;;;;5075710;28;20385;-73
2023/08/21 09:26:09;;;;;;;4.82;1.48;;;32.20;99.90;;;;;;5073077;28;20051;-73
2023/08/21 09:28:35;;;;;;;4.05;1.33;;;32.50;99.90;;;;;;5065000;28;20032;-74
2023/08/21 09:31:02;;;;;;;6.93;1.73;;;32.30;99.90;;;;;;5062066;28;20116;-73
2023/08/21 09:33:28;;;;;;;4.15;1.75;;;32.20;99.90;;;;;;5069064;28;20032;-73
2023/08/21 09:35:55;;;;;;;7.80;1.42;;;32.60;99.90;;;;;;5074762;28;20029;-72
2023/08/21 09:38:21;;;;;;;6.70;1.83;;;33.10;99.90;;;;;;5077249;28;20027;-69
2023/08/21 09:40:52;;;;;;;6.72;2.08;;;32.30;99.90;;;;;;5065135;28;20047;-70
2023/08/21 09:43:18;;;;;;;4.95;1.65;;;31.90;99.90;;;;;;5076216;28;20081;-70
2023/08/21 09:45:48;;;;;;;5.80;1.90;;;32.00;99.90;;;;;;5073860;28;20036;-71
2023/08/21 09:48:15;;;;;;;6.70;1.70;;;31.40;99.90;;;;;;5072066;28;20119;-71
2023/08/21 09:50:40;;;;;;;4.25;1.75;;;30.70;99.90;;;;;;5074580;28;20044;-71
2023/08/21 09:53:07;;;;;;;6.45;1.88;;;30.50;99.90;;;;;;5075862;28;20035;-71
2023/08/21 09:55:34;;;;;;;4.97;1.55;;;29.70;99.90;;;;;;5075379;28;20021;-72
2023/08/21 09:58:00;;;;;;;3.33;1.30;;;30.30;99.90;;;;;;5074443;28;20060;-70
2023/08/21 10:00:30;;;;;;;4.75;1.75;;;29.90;99.90;;;;;;5074221;28;20081;-72
2023/08/21 10:03:01;;;;;;;4.82;1.75;;;29.80;99.90;;;;;;5073609;28;20032;-70
2023/08/21 10:05:28;;;;;;;5.32;1.42;;;30.10;99.90;;;;;;5064348;28;20119;-69
2023/08/21 10:07:56;;;;;;;4.70;1.83;;;30.70;99.90;;;;;;5072647;28;20024;-71
2023/08/21 10:10:22;;;;;;;4.80;1.58;;;32.30;99.90;;;;;;5073346;28;20033;-71
2023/08/21 10:12:48;;;;;;;5.68;1.45;;;32.30;99.90;;;;;;5072935;28;20031;-70
2023/08/21 10:15:15;;;;;;;7.88;2.00;;;32.70;99.90;;;;;;5067014;28;20021;-72
2023/08/21 10:17:43;;;;;;;4.82;1.20;;;32.80;99.90;;;;;;5074157;28;20032;-72
2023/08/21 10:20:09;;;;;;;3.38;1.60;;;31.60;99.90;;;;;;5074553;28;20035;-69
2023/08/21 10:22:46;;;;;;;5.30;1.60;;;31.20;99.90;;;;;;5073294;28;20028;-70
2023/08/21 10:25:15;;;;;;;7.03;1.83;;;30.40;99.90;;;;;;5073243;28;20016;-70
2023/08/21 10:27:42;;;;;;;5.93;1.90;;;29.30;99.90;;;;;;5073910;28;20036;-70
2023/08/21 10:30:21;;;;;;;6.93;1.60;;;28.80;99.90;;;;;;5072730;28;20098;-70
2023/08/21 10:32:48;;;;;;;4.88;1.52;;;28.90;99.90;;;;;;5073131;28;20040;-70
2023/08/21 10:35:18;;;;;;;6.07;1.77;;;29.00;99.90;;;;;;5067393;28;20021;-70
2023/08/21 10:38:06;;;;;;;7.43;1.90;;;28.80;1.00;;;;;;5071960;28;20055;-70
2023/08/21 10:40:32;;;;;;;4.28;1.70;;;28.70;1.00;;;;;;5073433;28;20021;-71
2023/08/21 10:42:59;;;;;;;5.07;1.60;;;29.30;99.90;;;;;;5073537;28;20025;-70
2023/08/21 10:45:24;;;;;;;4.53;1.60;;;29.00;99.90;;;;;;5074081;28;20386;-71
2023/08/21 10:47:50;;;;;;;4.40;1.50;;;29.40;99.90;;;;;;5065070;28;20044;-69
2023/08/21 10:50:16;;;;;;;5.20;2.20;;;28.50;1.00;;;;;;5068571;28;20173;-72
2023/08/21 10:52:44;;;;;;;4.55;1.60;;;28.40;1.00;;;;;;5064584;28;20379;-71
2023/08/21 10:55:11;;;;;;;4.47;1.65;;;28.30;1.00;;;;;;5053901;28;20098;-70
2023/08/21 10:57:38;;;;;;;7.32;1.90;;;28.70;1.00;;;;;;5072883;28;20397;-72
2023/08/21 11:02:45;;;;;;;6.82;2.22;;;29.10;1.00;;;;;;5089552;27;20401;-72
2023/08/21 11:05:12;;;;;;;3.45;1.80;;;30.70;99.90;;;;;;5090353;28;20032;-72
2023/08/21 11:07:43;;;;;;;4.90;1.75;;;31.00;99.90;;;;;;5091026;28;20470;-72
2023/08/21 11:10:13;;;;;;;7.95;2.05;;;30.50;99.90;;;;;;5088263;28;20081;-71
2023/08/21 11:12:48;;;;;;;3.58;1.60;;;30.60;99.90;;;;;;5088399;28;20056;-71
2023/08/21 11:15:15;;;;;;;7.85;1.90;;;30.50;99.90;;;;;;5086946;28;20677;-71
2023/08/21 11:17:40;;;;;;;5.43;1.63;;;29.90;99.90;;;;;;5088978;28;20020;-71
2023/08/21 11:20:08;;;;;;;6.03;1.83;;;29.90;1.00;;;;;;5087910;28;20024;-71
2023/08/21 11:22:33;;;;;;;6.20;2.08;;;29.70;99.90;;;;;;5086695;28;20123;-71
2023/08/21 11:24:59;;;;;;;8.25;1.70;;;29.60;99.90;;;;;;5086495;28;20103;-73
2023/08/21 11:27:25;;;;;;;5.88;1.90;;;29.10;1.00;;;;;;5086646;28;20104;-71
2023/08/21 11:29:51;;;;;;;5.68;1.60;;;29.10;1.00;;;;;;5082659;28;20027;-72
2023/08/21 11:32:21;;;;;;;6.57;2.10;;;28.60;99.90;;;;;;5087875;28;20063;-72
2023/08/21 11:34:52;;;;;;;10.48;1.90;;;28.90;99.90;;;;;;5087948;28;20036;-71
2023/08/21 11:37:20;;;;;;;6.88;1.75;;;29.60;99.90;;;;;;5089118;28;20538;-71
2023/08/21 11:39:49;;;;;;;6.55;1.70;;;29.80;8.40;;;;;;5082987;28;20039;-71
2023/08/21 11:42:15;;;;;;;4.95;1.58;;;29.30;99.90;;;;;;5086751;28;20032;-73
2023/08/21 11:47:21;;;;;;;5.03;1.75;;;29.10;1.00;;;;;;5071067;28;20792;-70
2023/08/21 11:49:49;;;;;;;4.75;1.90;;;29.70;99.90;;;;;;5066612;28;20044;-70
2023/08/21 11:52:25;;;;;;;6.32;1.80;;;29.70;99.90;;;;;;5064975;28;20094;-70
2023/08/21 11:54:52;;;;;;;5.55;1.90;;;29.20;99.90;;;;;;5063597;28;20535;-70
2023/08/21 11:57:18;;;;;;;4.28;1.83;;;29.40;1.00;;;;;;5062980;28;20037;-70
2023/08/21 11:59:51;;;;;;;5.32;1.73;;;29.70;57.90;;;;;;5070490;28;20063;-71
2023/08/21 12:02:18;;;;;;;;;;;29.50;1.00;;;;;;5070692;28;20033;-70
2023/08/21 12:04:43;;;;;;;5.18;1.90;;;29.10;1.00;;;;;;5068921;28;20007;-70
2023/08/21 12:07:09;;;;;;;6.25;2.08;;;29.30;23.70;;;;;;5070031;28;20115;-70
2023/08/21 12:09:35;;;;;;;5.93;1.85;;;29.20;1.00;;;;;;5069247;28;20391;-71
2023/08/21 12:12:01;;;;;;;5.25;1.52;;;29.20;1.00;;;;;;5068879;28;20083;-71
2023/08/21 12:14:28;;;;;;;4.95;1.85;;;29.40;99.90;;;;;;5067865;28;20509;-70
2023/08/21 12:16:54;;;;;;;4.40;2.00;;;29.20;99.90;;;;;;5062930;28;20496;-70
2023/08/21 12:19:23;;;;;;;4.80;1.70;;;29.10;1.00;;;;;;5067409;28;20115;-70
2023/08/21 12:21:48;;;;;;;6.75;2.13;;;29.20;34.20;;;;;;5068641;28;20032;-72
2023/08/21 12:24:14;;;;;;;10.88;2.30;;;29.10;1.00;;;;;;5065513;28;20105;-70
2023/08/21 12:26:39;;;;;;;5.22;2.38;;;29.20;99.90;;;;;;5068086;28;20060;-70
2023/08/21 12:29:05;;;;;;;6.03;2.25;;;28.80;99.90;;;;;;5067476;28;20021;-70
2023/08/21 12:31:31;;;;;;;7.47;2.15;;;29.20;1.00;;;;;;5068474;28;20048;-70
2023/08/21 12:33:56;;;;;;;7.18;2.40;;;29.20;32.10;;;;;;5067625;28;20064;-71
2023/08/21 12:36:23;;;;;;;5.18;1.92;;;28.90;1.00;;;;;;5068209;28;20115;-70
2023/08/21 12:38:48;;;;;;;7.70;1.88;;;29.00;99.90;;;;;;5067993;28;20048;-70
2023/08/21 12:41:14;;;;;;;5.80;2.40;;;29.40;99.90;;;;;;5068371;28;20509;-70
2023/08/21 12:43:39;;;;;;;8.35;2.42;;;29.70;99.50;;;;;;5066336;28;20482;-70
2023/08/21 12:46:05;;;;;;;7.18;2.35;;;29.60;99.90;;;;;;5061702;28;20049;-70
2023/08/21 12:48:31;;;;;;;8.98;2.25;;;29.80;1.00;;;;;;5068391;28;20037;-71